今朝の成田(2017/08/13)

AMX058/N782AM(B788)

JJP12/JA15JJ(A320)

VNL100/JA01VA(A320)

CPA006/B-LIA(B744)

*JJP501/JA08JJ(A320)

ANA179/JA823A(B788)

*JJP101/JA04JJ(A320)

ANA832/JA617A(B763)

THA640/HS-TJD(B772)

*JJP401/JA07JJ(A320)

CPA524/B-HLT(A333)

ANA814/JA627A(B763) with winglet

ANA818/JA808A(B788)

JAL724/JA869J(B789)

JAL752/JA865J(B789)

JAL726/JA863J(B789)

*JJP301/JA20JJ(A320)

JAL740/JA843J(B788)

HVN6318/VN-A335(A321)

HVN310/VN-A865(A789)

RJAA 122100Z VRB02KT 4000 BR FEW001 SCT002 BKN/// 23/23 Q1007 BECMG 36008KT 6000 NSW

RJAA 122200Z 02007KT 8000 FEW007 SCT015 BKN/// 25/23 Q1007 NOSIG RMK 1ST007 3CU015 A2976

今朝の成田は雲があるようです。